Time;durP1;ratioP1;P1;durP2;ratioP2;P2;SDS_P1;SDS_P2;PMS_P1;PMS_P2;Temp;Humidity;BMP_temperature;BMP_pressure;BME280_temperature;BME280_humidity;BME280_pressure;Samples;Min_cycle;Max_cycle;Signal;HPM_P1;HPM_P2
2021/05/02 00:01:56;;;;;;;3.78;1.75;;;5.10;99.90;;;;;;5057274;28;20013;-76
2021/05/02 00:04:22;;;;;;;6.00;1.98;;;5.00;99.90;;;;;;5075172;28;20095;-76
2021/05/02 00:06:48;;;;;;;5.57;2.28;;;4.90;99.90;;;;;;5056874;28;20066;-76
2021/05/02 00:09:13;;;;;;;7.05;2.50;;;4.90;99.90;;;;;;5090460;28;20138;-76
2021/05/02 00:11:39;;;;;;;8.23;1.52;;;4.90;99.90;;;;;;5057107;28;20116;-76
2021/05/02 00:14:05;;;;;;;6.25;2.42;;;4.90;99.90;;;;;;5075294;28;20032;-76
2021/05/02 00:16:31;;;;;;;5.57;1.85;;;4.80;99.90;;;;;;5074841;28;20036;-76
2021/05/02 00:18:57;;;;;;;12.85;2.38;;;4.80;99.90;;;;;;5057168;28;20075;-75
2021/05/02 00:21:24;;;;;;;3.97;1.77;;;4.80;99.90;;;;;;5074502;28;20099;-76
2021/05/02 00:23:50;;;;;;;9.10;1.55;;;4.80;99.90;;;;;;5056822;28;20024;-76
2021/05/02 00:26:16;;;;;;;7.55;1.90;;;4.80;99.90;;;;;;5056587;28;20058;-76
2021/05/02 00:28:46;;;;;;;8.45;1.67;;;4.80;99.90;;;;;;5073278;28;20021;-76
2021/05/02 00:31:12;;;;;;;4.65;1.40;;;4.90;99.90;;;;;;5074988;28;20482;-76
2021/05/02 00:33:40;;;;;;;8.77;1.73;;;4.80;99.90;;;;;;5074646;28;20024;-76
2021/05/02 00:36:06;;;;;;;3.72;1.70;;;4.90;99.90;;;;;;5074124;28;20360;-76
2021/05/02 00:38:39;;;;;;;6.47;1.75;;;4.80;99.90;;;;;;5056482;28;20017;-76
2021/05/02 00:41:09;;;;;;;5.28;1.35;;;4.80;99.90;;;;;;5074584;28;20029;-76
2021/05/02 00:43:56;;;;;;;4.72;0.98;;;4.80;99.90;;;;;;5074583;28;20487;-76
2021/05/02 00:46:27;;;;;;;4.40;1.73;;;4.80;99.90;;;;;;5056531;28;20024;-76
2021/05/02 00:49:19;;;;;;;5.55;1.27;;;4.70;99.90;;;;;;5073147;28;20533;-76
2021/05/02 00:51:56;;;;;;;2.63;1.23;;;4.70;99.90;;;;;;5055763;28;20036;-76
2021/05/02 00:54:31;;;;;;;5.50;1.45;;;4.60;99.90;;;;;;5074416;28;20028;-76
2021/05/02 00:57:09;;;;;;;3.65;1.35;;;4.60;99.90;;;;;;5075006;28;20020;-76
2021/05/02 01:00:00;;;;;;;6.68;1.10;;;4.60;99.90;;;;;;5056028;28;20028;-76
2021/05/02 01:02:28;;;;;;;4.78;1.30;;;4.50;99.90;;;;;;5074064;28;20024;-76
2021/05/02 01:04:58;;;;;;;1.50;0.73;;;4.40;99.90;;;;;;5056070;28;20049;-76
2021/05/02 01:07:33;;;;;;;4.70;0.82;;;4.40;99.90;;;;;;5074149;28;20028;-76
2021/05/02 01:10:04;;;;;;;5.28;1.63;;;4.30;99.90;;;;;;5074320;28;20377;-76
2021/05/02 01:12:32;;;;;;;5.15;1.30;;;4.20;99.90;;;;;;5073761;28;20025;-76
2021/05/02 01:14:59;;;;;;;2.13;0.60;;;4.20;99.90;;;;;;5074173;28;20030;-76
2021/05/02 01:17:26;;;;;;;4.25;0.85;;;4.20;99.90;;;;;;5074030;28;20481;-76
2021/05/02 01:19:53;;;;;;;5.05;0.73;;;4.10;99.90;;;;;;5073790;28;20043;-76
2021/05/02 01:22:21;;;;;;;7.88;0.50;;;4.10;99.90;;;;;;5073716;28;20028;-76
2021/05/02 01:24:52;;;;;;;3.28;0.45;;;4.00;99.90;;;;;;5055823;28;20016;-76
2021/05/02 01:27:26;;;;;;;3.70;0.30;;;4.00;99.90;;;;;;5055905;28;20051;-76
2021/05/02 01:29:53;;;;;;;2.75;1.30;;;3.90;99.90;;;;;;5055796;28;20021;-76
2021/05/02 01:32:19;;;;;;;20.92;1.55;;;3.90;99.90;;;;;;5072450;28;20031;-75
2021/05/02 01:34:45;;;;;;;1.33;0.25;;;3.90;99.90;;;;;;5077884;28;20495;-75
2021/05/02 01:37:11;;;;;;;3.15;0.43;;;3.90;99.90;;;;;;5078350;28;20024;-75
2021/05/02 01:39:37;;;;;;;5.90;0.50;;;3.80;99.90;;;;;;5059603;28;20023;-75
2021/05/02 01:42:03;;;;;;;2.40;0.63;;;3.80;99.90;;;;;;5092895;28;20024;-76
2021/05/02 01:44:28;;;;;;;4.05;0.57;;;3.70;99.90;;;;;;5059412;28;20436;-76
2021/05/02 01:46:58;;;;;;;2.75;0.65;;;3.70;99.90;;;;;;5077901;28;20056;-76
2021/05/02 01:49:24;;;;;;;5.10;0.88;;;3.70;99.90;;;;;;5077305;28;20082;-76
2021/05/02 01:51:50;;;;;;;1.63;0.30;;;3.70;99.90;;;;;;5077118;28;20032;-76
2021/05/02 01:54:16;;;;;;;3.88;0.47;;;3.60;99.90;;;;;;5077316;28;20029;-76
2021/05/02 01:56:44;;;;;;;2.70;0.50;;;3.70;99.90;;;;;;5076937;28;20048;-76
2021/05/02 01:59:12;;;;;;;2.33;0.50;;;3.60;99.90;;;;;;5076979;28;20024;-76
2021/05/02 02:01:37;;;;;;;6.10;0.95;;;3.60;99.90;;;;;;5076862;28;20031;-76
2021/05/02 02:04:05;;;;;;;4.40;0.50;;;3.60;99.90;;;;;;5058892;28;20480;-76
2021/05/02 02:06:31;;;;;;;2.95;0.55;;;3.60;99.90;;;;;;5058937;28;20543;-76
2021/05/02 02:08:58;;;;;;;3.38;0.40;;;3.60;99.90;;;;;;5076571;28;20077;-75
2021/05/02 02:11:28;;;;;;;4.53;0.30;;;3.60;99.90;;;;;;5058867;28;20365;-76
2021/05/02 02:13:55;;;;;;;8.02;1.05;;;3.50;99.90;;;;;;5076570;28;20064;-76
2021/05/02 02:16:22;;;;;;;7.70;0.68;;;3.50;99.90;;;;;;5075174;28;20489;-76
2021/05/02 02:18:48;;;;;;;4.75;0.60;;;3.50;99.90;;;;;;5075486;28;20469;-76
2021/05/02 02:21:16;;;;;;;5.95;0.60;;;3.50;99.90;;;;;;5077467;28;20016;-76
2021/05/02 02:23:51;;;;;;;5.23;0.80;;;3.50;99.90;;;;;;5059015;28;20431;-76
2021/05/02 02:26:29;;;;;;;3.15;0.80;;;3.40;99.90;;;;;;5058853;28;20032;-76
2021/05/02 02:28:55;;;;;;;2.40;0.70;;;3.40;99.90;;;;;;5077446;28;20028;-76
2021/05/02 02:31:23;;;;;;;1.67;0.43;;;3.40;99.90;;;;;;5077312;28;20020;-76
2021/05/02 02:33:50;;;;;;;4.78;0.55;;;3.40;99.90;;;;;;5077586;28;20372;-76
2021/05/02 02:36:17;;;;;;;2.90;0.38;;;3.30;99.90;;;;;;5076904;28;20024;-76
2021/05/02 02:38:44;;;;;;;3.83;0.50;;;3.30;99.90;;;;;;5076872;28;20381;-76
2021/05/02 02:41:15;;;;;;;3.47;0.45;;;3.30;99.90;;;;;;5058698;28;20013;-76
2021/05/02 02:43:51;;;;;;;3.28;0.50;;;3.30;99.90;;;;;;5076673;28;20060;-76
2021/05/02 02:46:19;;;;;;;4.78;0.70;;;3.30;99.90;;;;;;5058555;28;20016;-76
2021/05/02 02:48:50;;;;;;;5.47;1.60;;;3.20;99.90;;;;;;5076262;28;20040;-76
2021/05/02 02:51:18;;;;;;;4.43;0.88;;;3.20;99.90;;;;;;5076599;28;20112;-76
2021/05/02 02:53:46;;;;;;;6.22;1.00;;;3.20;99.90;;;;;;5076740;28;20050;-76
2021/05/02 02:56:21;;;;;;;4.22;1.40;;;3.20;99.90;;;;;;5058100;28;20539;-76
2021/05/02 02:59:21;;;;;;;6.38;1.33;;;3.20;99.90;;;;;;5076349;28;20473;-76
2021/05/02 03:01:48;;;;;;;4.50;1.48;;;3.20;99.90;;;;;;5065293;28;20128;-76
2021/05/02 03:04:18;;;;;;;6.13;2.17;;;3.20;99.90;;;;;;5075836;28;20035;-76
2021/05/02 03:06:44;;;;;;;6.22;1.30;;;3.10;99.90;;;;;;5076065;28;20519;-76
2021/05/02 03:09:14;;;;;;;6.10;1.20;;;3.10;99.90;;;;;;5075586;28;20057;-76
2021/05/02 03:11:40;;;;;;;5.88;1.75;;;3.10;99.90;;;;;;5074409;28;20070;-76
2021/05/02 03:14:05;;;;;;;3.65;1.50;;;3.10;99.90;;;;;;5057536;28;20024;-76
2021/05/02 03:16:34;;;;;;;5.78;2.17;;;3.10;99.90;;;;;;5075751;28;20024;-76
2021/05/02 03:19:17;;;;;;;3.78;1.40;;;3.10;99.90;;;;;;5075376;28;20100;-76
2021/05/02 03:21:59;;;;;;;6.95;2.28;;;3.20;99.90;;;;;;5057479;28;20036;-76
2021/05/02 03:24:29;;;;;;;7.75;2.47;;;3.20;99.90;;;;;;5075324;28;20024;-76
2021/05/02 03:27:01;;;;;;;9.43;2.28;;;3.20;99.90;;;;;;5075699;28;20041;-76
2021/05/02 03:29:32;;;;;;;4.78;2.05;;;3.30;99.90;;;;;;5075602;28;20028;-76
2021/05/02 03:32:01;;;;;;;5.80;1.98;;;3.30;99.90;;;;;;5057947;28;20384;-76
2021/05/02 03:34:29;;;;;;;6.70;2.55;;;4.50;99.90;;;;;;5075373;28;20059;-76
2021/05/02 03:36:59;;;;;;;6.53;2.00;;;3.30;99.90;;;;;;5075478;28;20044;-76
2021/05/02 03:39:25;;;;;;;9.63;2.55;;;3.40;99.90;;;;;;5075916;28;20263;-76
2021/05/02 03:41:51;;;;;;;9.15;2.47;;;3.40;99.90;;;;;;5057459;28;20025;-76
2021/05/02 03:44:16;;;;;;;9.93;3.13;;;3.40;99.90;;;;;;5075677;28;20028;-76
2021/05/02 03:46:42;;;;;;;4.72;2.20;;;3.40;99.90;;;;;;5090848;28;20024;-76
2021/05/02 03:49:08;;;;;;;8.57;2.78;;;3.50;99.90;;;;;;5075668;28;20029;-76
2021/05/02 03:51:37;;;;;;;6.82;3.22;;;3.50;99.90;;;;;;5075385;28;20357;-76
2021/05/02 03:54:03;;;;;;;5.93;2.20;;;3.60;99.90;;;;;;5056992;28;20538;-76
2021/05/02 03:56:45;;;;;;;5.90;2.83;;;3.70;99.90;;;;;;5056598;28;20119;-76
2021/05/02 03:59:18;;;;;;;3.60;1.83;;;3.70;99.90;;;;;;5057011;28;20407;-76
2021/05/02 04:01:49;;;;;;;5.85;2.40;;;3.70;99.90;;;;;;5073747;28;20020;-76
2021/05/02 04:04:18;;;;;;;5.90;1.83;;;3.70;99.90;;;;;;5073648;28;20456;-76
2021/05/02 04:06:44;;;;;;;7.70;2.30;;;3.70;99.90;;;;;;5075170;28;20047;-76
2021/05/02 04:09:11;;;;;;;5.78;2.25;;;3.70;99.90;;;;;;5056761;28;20439;-76
2021/05/02 04:11:37;;;;;;;7.68;1.88;;;3.70;99.90;;;;;;5075195;28;20056;-76
2021/05/02 04:14:08;;;;;;;5.00;1.88;;;3.70;99.90;;;;;;5074557;28;20523;-76
2021/05/02 04:16:34;;;;;;;3.30;1.58;;;3.70;99.90;;;;;;5074493;28;20380;-76
2021/05/02 04:19:01;;;;;;;7.55;2.05;;;3.60;99.90;;;;;;5074893;28;20465;-76
2021/05/02 04:21:26;;;;;;;8.20;2.13;;;3.60;99.90;;;;;;5056781;28;20119;-76
2021/05/02 04:23:52;;;;;;;4.88;1.08;;;3.60;99.90;;;;;;5056344;28;20029;-76
2021/05/02 04:26:18;;;;;;;5.43;1.58;;;3.50;99.90;;;;;;5072922;28;20503;-76
2021/05/02 04:28:44;;;;;;;5.95;2.60;;;3.50;99.90;;;;;;5074174;28;20099;-76
2021/05/02 04:31:10;;;;;;;9.27;1.50;;;3.40;99.90;;;;;;5074302;28;20027;-76
2021/05/02 04:33:36;;;;;;;4.50;1.73;;;3.40;99.90;;;;;;5074252;28;20024;-76
2021/05/02 04:36:02;;;;;;;5.00;1.50;;;3.40;99.90;;;;;;5072950;28;20104;-76
2021/05/02 04:38:28;;;;;;;2.42;1.17;;;3.40;99.90;;;;;;5074107;28;20074;-76
2021/05/02 04:40:53;;;;;;;3.47;1.30;;;3.40;99.90;;;;;;5073977;28;20023;-76
2021/05/02 04:43:19;;;;;;;4.15;1.10;;;3.50;99.90;;;;;;5073992;28;20380;-76
2021/05/02 04:45:44;;;;;;;4.35;1.63;;;3.60;99.90;;;;;;5056056;28;20370;-76
2021/05/02 04:48:10;;;;;;;6.90;2.17;;;3.70;99.90;;;;;;5073897;28;20501;-76
2021/05/02 04:50:35;;;;;;;10.05;1.65;;;3.80;99.90;;;;;;5055696;28;20552;-76
2021/05/02 04:53:02;;;;;;;6.03;1.35;;;3.90;99.90;;;;;;5074384;28;20028;-76
2021/05/02 04:55:27;;;;;;;8.55;1.80;;;4.00;99.90;;;;;;5074205;28;20059;-76
2021/05/02 04:57:53;;;;;;;6.72;1.27;;;4.10;99.90;;;;;;5073692;28;20056;-76
2021/05/02 05:00:20;;;;;;;4.85;1.30;;;4.10;99.90;;;;;;5055871;28;20528;-76
2021/05/02 05:02:46;;;;;;;4.88;1.50;;;4.10;99.90;;;;;;5074301;28;20405;-76
2021/05/02 05:05:12;;;;;;;10.20;2.00;;;4.20;99.90;;;;;;5074231;28;20028;-76
2021/05/02 05:07:37;;;;;;;5.75;1.55;;;4.20;99.90;;;;;;5055321;28;20491;-76
2021/05/02 05:10:03;;;;;;;3.45;1.23;;;4.30;99.90;;;;;;5073950;28;20085;-76
2021/05/02 05:12:29;;;;;;;2.40;0.95;;;4.40;99.90;;;;;;5074137;28;20025;-76
2021/05/02 05:14:55;;;;;;;4.38;1.73;;;4.40;99.90;;;;;;5073107;28;20047;-76
2021/05/02 05:17:20;;;;;;;8.20;1.15;;;4.60;99.90;;;;;;5056394;28;20020;-76
2021/05/02 05:19:46;;;;;;;4.10;0.90;;;4.70;99.90;;;;;;5074226;28;20020;-76
2021/05/02 05:22:11;;;;;;;3.67;1.00;;;4.80;99.90;;;;;;5074129;28;20087;-76
2021/05/02 05:24:37;;;;;;;4.90;1.73;;;4.90;99.90;;;;;;5074181;28;20103;-76
2021/05/02 05:27:03;;;;;;;5.93;1.65;;;5.00;99.90;;;;;;5074241;28;20028;-76
2021/05/02 05:29:29;;;;;;;2.90;0.82;;;5.00;99.90;;;;;;5089627;28;20094;-76
2021/05/02 05:31:55;;;;;;;4.78;0.90;;;5.10;99.90;;;;;;5056569;28;20031;-78
2021/05/02 05:34:20;;;;;;;4.03;0.80;;;5.30;99.90;;;;;;5089812;28;20059;-78
2021/05/02 05:36:46;;;;;;;2.88;1.02;;;5.40;99.90;;;;;;5090461;28;20105;-78
2021/05/02 05:39:11;;;;;;;5.47;0.60;;;5.50;99.90;;;;;;5056321;28;20074;-78
2021/05/02 05:41:37;;;;;;;4.25;0.60;;;5.60;99.90;;;;;;5056610;28;20029;-78
2021/05/02 05:44:03;;;;;;;4.38;1.17;;;5.70;99.90;;;;;;5074834;28;20114;-77
2021/05/02 05:46:28;;;;;;;6.70;0.43;;;5.90;99.90;;;;;;5075073;22;20043;-77
2021/05/02 05:48:54;;;;;;;6.60;1.80;;;6.00;99.90;;;;;;5093981;28;20169;-78
2021/05/02 05:51:19;;;;;;;7.68;1.20;;;6.10;99.90;;;;;;5075901;28;20020;-76
2021/05/02 05:53:45;;;;;;;6.43;1.20;;;6.20;99.90;;;;;;5094319;28;20032;-78
2021/05/02 05:56:11;;;;;;;2.08;0.40;;;6.40;99.90;;;;;;5093994;28;20020;-75
2021/05/02 05:58:37;;;;;;;1.42;0.50;;;6.50;99.90;;;;;;5076158;28;20024;-76
2021/05/02 06:01:02;;;;;;;1.40;0.22;;;6.60;99.90;;;;;;5075990;28;20031;-76
2021/05/02 06:03:28;;;;;;;3.85;0.25;;;6.70;99.90;;;;;;5093751;28;20040;-78
2021/05/02 06:05:53;;;;;;;2.70;0.28;;;6.80;99.90;;;;;;5094840;28;20020;-77
2021/05/02 06:08:19;;;;;;;4.00;0.17;;;6.90;99.90;;;;;;5120400;22;20131;-76
2021/05/02 06:10:45;;;;;;;1.15;0.45;;;6.90;99.90;;;;;;5106561;22;20437;-77
2021/05/02 06:13:10;;;;;;;5.05;0.30;;;7.10;99.90;;;;;;5088726;22;20092;-77
2021/05/02 06:15:36;;;;;;;1.70;0.57;;;7.30;99.90;;;;;;5094095;28;20024;-76
2021/05/02 06:18:01;;;;;;;2.33;0.22;;;7.40;99.90;;;;;;5093727;28;20012;-78
2021/05/02 06:20:27;;;;;;;4.20;0.10;;;7.40;99.90;;;;;;5079222;28;20031;-77
2021/05/02 06:22:53;;;;;;;4.38;0.60;;;7.60;99.90;;;;;;5079206;28;20059;-76
2021/05/02 06:25:20;;;;;;;2.50;0.85;;;7.60;99.90;;;;;;5097528;28;20019;-76
2021/05/02 06:27:46;;;;;;;3.38;0.30;;;7.70;99.90;;;;;;5097997;28;20024;-76
2021/05/02 06:30:12;;;;;;;1.13;0.20;;;7.80;99.90;;;;;;5097562;28;20050;-77
2021/05/02 06:32:38;;;;;;;3.60;0.25;;;8.00;99.90;;;;;;5097600;28;20107;-77
2021/05/02 06:35:05;;;;;;;3.03;0.10;;;8.10;99.90;;;;;;5092081;22;20151;-79
2021/05/02 06:37:32;;;;;;;0.57;0.00;;;8.20;99.90;;;;;;5088296;22;20032;-77
2021/05/02 06:39:57;;;;;;;1.75;0.10;;;8.30;99.90;;;;;;5088705;28;20412;-78
2021/05/02 06:42:24;;;;;;;5.20;0.50;;;8.30;99.90;;;;;;5096884;28;20020;-76
2021/05/02 06:44:51;;;;;;;3.22;0.10;;;8.40;99.90;;;;;;5078680;28;20536;-77
2021/05/02 06:47:16;;;;;;;6.10;0.20;;;8.40;99.90;;;;;;5097204;28;20027;-77
2021/05/02 06:49:42;;;;;;;4.65;0.77;;;8.40;99.90;;;;;;5096676;28;20036;-77
2021/05/02 06:52:08;;;;;;;3.40;0.20;;;8.40;99.90;;;;;;5078183;28;20370;-76
2021/05/02 06:54:33;;;;;;;2.53;0.10;;;8.50;99.90;;;;;;5096401;28;20473;-77
2021/05/02 06:56:59;;;;;;;3.58;0.10;;;8.50;99.90;;;;;;5096507;28;20028;-77
2021/05/02 06:59:24;;;;;;;0.50;0.00;;;8.60;99.90;;;;;;5096591;28;20042;-76
2021/05/02 07:01:50;;;;;;;1.30;0.30;;;8.70;99.90;;;;;;5096302;28;20020;-77
2021/05/02 07:04:16;;;;;;;1.17;0.10;;;8.60;99.90;;;;;;5096481;28;20104;-77
2021/05/02 07:06:41;;;;;;;2.28;0.03;;;8.50;99.90;;;;;;5096700;28;20085;-77
2021/05/02 07:09:07;;;;;;;2.00;0.13;;;8.60;99.90;;;;;;5096580;28;20020;-77
2021/05/02 07:11:32;;;;;;;1.65;0.28;;;8.70;99.90;;;;;;5095292;28;20024;-77
2021/05/02 07:13:59;;;;;;;3.30;0.10;;;8.90;99.90;;;;;;5096083;28;20028;-77
2021/05/02 07:16:24;;;;;;;1.98;0.38;;;9.00;99.90;;;;;;5096202;28;20028;-77
2021/05/02 07:18:51;;;;;;;0.57;0.00;;;9.00;98.20;;;;;;5096649;28;20372;-77
2021/05/02 07:21:19;;;;;;;2.53;0.10;;;9.00;98.90;;;;;;5078242;28;20012;-76
2021/05/02 07:23:50;;;;;;;1.13;0.25;;;9.00;99.50;;;;;;5078543;28;20039;-76
2021/05/02 07:26:18;;;;;;;1.38;0.00;;;9.10;99.90;;;;;;5078488;28;20024;-78
2021/05/02 07:28:44;;;;;;;2.60;0.08;;;9.20;99.10;;;;;;5096566;28;20020;-77
2021/05/02 07:33:39;;;;;;;2.35;0.00;;;9.60;93.80;;;;;;5054413;28;20099;-77
2021/05/02 07:36:05;;;;;;;2.10;0.00;;;9.90;93.70;;;;;;5056257;28;20017;-79
2021/05/02 07:38:32;;;;;;;5.20;0.00;;;10.10;90.10;;;;;;5113392;22;20476;-76
2021/05/02 07:40:58;;;;;;;2.10;0.00;;;10.20;91.00;;;;;;5071051;22;20468;-76
2021/05/02 07:43:24;;;;;;;2.28;0.10;;;10.20;90.70;;;;;;5075810;28;20535;-77
2021/05/02 07:45:50;;;;;;;0.70;0.00;;;10.10;90.70;;;;;;5075467;28;20024;-76
2021/05/02 07:48:16;;;;;;;1.75;0.00;;;10.00;90.90;;;;;;5075428;28;20028;-77
2021/05/02 07:50:42;;;;;;;0.88;0.38;;;9.70;90.90;;;;;;5039897;28;20036;-78
2021/05/02 07:53:07;;;;;;;1.13;0.00;;;9.40;90.70;;;;;;5056430;28;20029;-76
2021/05/02 07:55:33;;;;;;;1.15;0.10;;;9.20;93.80;;;;;;5055837;22;20048;-76
2021/05/02 07:57:59;;;;;;;1.98;0.00;;;9.30;95.00;;;;;;5095643;28;20028;-77
2021/05/02 08:00:25;;;;;;;0.65;0.00;;;9.50;95.80;;;;;;5077326;28;20549;-77
2021/05/02 08:02:50;;;;;;;2.75;0.43;;;9.70;92.10;;;;;;5081625;22;20049;-77
2021/05/02 08:05:16;;;;;;;4.55;0.25;;;9.70;88.60;;;;;;5074629;28;20032;-77
2021/05/02 08:07:43;;;;;;;0.00;0.00;;;9.80;89.40;;;;;;5075225;28;20361;-77
2021/05/02 08:10:09;;;;;;;2.58;0.20;;;9.90;90.00;;;;;;5088281;28;20448;-77
2021/05/02 08:12:35;;;;;;;5.25;0.22;;;10.10;81.60;;;;;;5095251;28;20055;-76
2021/05/02 08:15:00;;;;;;;0.32;0.00;;;10.20;79.40;;;;;;5076885;28;20051;-75
2021/05/02 08:17:26;;;;;;;0.15;0.15;;;10.30;80.30;;;;;;5094786;28;20023;-75
2021/05/02 08:19:52;;;;;;;0.00;0.00;;;10.50;79.20;;;;;;5093606;28;20024;-76
2021/05/02 08:22:19;;;;;;;1.83;0.00;;;10.90;76.30;;;;;;5094940;28;20016;-75
2021/05/02 08:24:44;;;;;;;0.30;0.00;;;11.10;71.70;;;;;;5094843;28;20082;-76
2021/05/02 08:27:10;;;;;;;0.32;0.00;;;11.30;73.90;;;;;;5094521;28;20028;-76
2021/05/02 08:29:36;;;;;;;2.03;0.00;;;11.40;73.50;;;;;;5094685;28;20481;-75
2021/05/02 08:32:02;;;;;;;3.35;0.00;;;11.50;73.10;;;;;;5094603;28;20031;-76
2021/05/02 08:34:27;;;;;;;3.30;0.40;;;11.50;73.20;;;;;;5076497;28;20028;-76
2021/05/02 08:36:53;;;;;;;3.30;0.55;;;11.70;75.10;;;;;;5094402;28;20023;-76
2021/05/02 08:39:18;;;;;;;1.42;0.13;;;11.80;72.30;;;;;;5093111;28;20016;-76
2021/05/02 08:41:44;;;;;;;1.27;0.10;;;12.00;74.50;;;;;;5075896;28;20581;-76
2021/05/02 08:44:09;;;;;;;2.00;0.08;;;12.10;69.60;;;;;;5076108;28;20473;-75
2021/05/02 08:46:35;;;;;;;1.73;0.30;;;12.00;71.50;;;;;;5093320;28;20038;-76
2021/05/02 08:49:04;;;;;;;0.75;0.38;;;11.70;68.10;;;;;;5094568;28;20491;-76
2021/05/02 08:51:31;;;;;;;1.27;0.25;;;11.40;70.20;;;;;;5094128;28;20439;-75
2021/05/02 08:53:56;;;;;;;0.75;0.08;;;10.80;76.90;;;;;;5076301;28;20024;-75
2021/05/02 08:56:22;;;;;;;3.60;0.00;;;10.20;82.20;;;;;;5094290;28;20415;-76
2021/05/02 08:58:48;;;;;;;0.98;0.00;;;9.80;85.40;;;;;;5094568;28;20024;-76
2021/05/02 09:01:13;;;;;;;0.52;0.20;;;9.40;84.40;;;;;;5094124;28;20016;-75
2021/05/02 09:03:47;;;;;;;0.43;0.00;;;9.10;91.20;;;;;;5094067;28;20455;-76
2021/05/02 09:06:18;;;;;;;0.82;0.00;;;9.00;92.40;;;;;;5075901;28;20031;-76
2021/05/02 09:08:45;;;;;;;1.08;0.30;;;9.00;94.30;;;;;;5076138;28;20020;-75
2021/05/02 09:11:11;;;;;;;4.75;0.00;;;9.10;95.50;;;;;;5076277;28;20016;-75
2021/05/02 09:13:50;;;;;;;1.02;0.00;;;9.20;95.60;;;;;;5094475;28;20019;-75
2021/05/02 09:16:16;;;;;;;1.70;0.00;;;9.50;95.30;;;;;;5094431;28;20020;-76
2021/05/02 09:18:46;;;;;;;1.55;0.00;;;9.70;94.20;;;;;;5094265;28;20016;-76
2021/05/02 09:23:41;;;;;;;0.53;0.00;;;9.90;91.40;;;;;;5072789;28;20102;-77
2021/05/02 09:26:17;;;;;;;0.57;0.00;;;9.90;91.80;;;;;;5055949;28;20024;-77
2021/05/02 09:28:56;;;;;;;3.30;0.10;;;9.90;92.00;;;;;;5074055;28;20047;-75
2021/05/02 09:31:24;;;;;;;1.75;0.00;;;9.90;93.00;;;;;;5074659;28;20104;-77
2021/05/02 09:33:50;;;;;;;2.92;0.15;;;9.90;91.70;;;;;;5096338;22;20377;-76
2021/05/02 09:36:19;;;;;;;0.15;0.00;;;9.90;90.80;;;;;;5094471;28;20025;-78
2021/05/02 09:38:45;;;;;;;1.38;0.20;;;9.90;92.40;;;;;;5094752;28;20445;-76
2021/05/02 09:41:16;;;;;;;0.43;0.00;;;10.10;90.10;;;;;;5114937;28;20024;-76
2021/05/02 09:43:47;;;;;;;0.93;0.00;;;10.50;89.30;;;;;;5097263;28;20544;-78
2021/05/02 09:46:27;;;;;;;1.45;0.00;;;11.00;88.50;;;;;;5114671;28;20012;-77
2021/05/02 09:49:11;;;;;;;0.77;0.00;;;11.20;84.40;;;;;;5116606;22;20524;-76
2021/05/02 09:51:44;;;;;;;3.60;0.80;;;11.40;82.20;;;;;;5073696;23;20048;-79
2021/05/02 09:54:13;;;;;;;0.43;0.10;;;11.50;75.50;;;;;;5095826;28;20108;-78
2021/05/02 09:56:40;;;;;;;2.92;0.52;;;11.50;75.00;;;;;;5082520;23;20068;-77
2021/05/02 09:59:25;;;;;;;1.83;0.28;;;11.40;77.60;;;;;;5089744;22;20012;-76
2021/05/02 10:02:10;;;;;;;1.85;0.00;;;11.40;74.90;;;;;;5077123;28;20432;-77
2021/05/02 10:04:41;;;;;;;1.35;0.00;;;11.30;73.90;;;;;;5059255;28;20025;-78
2021/05/02 10:07:11;;;;;;;0.28;0.00;;;11.30;74.10;;;;;;5090219;22;20044;-77
2021/05/02 10:09:37;;;;;;;0.43;0.00;;;11.20;77.20;;;;;;5059577;28;20023;-76
2021/05/02 10:12:04;;;;;;;0.70;0.28;;;11.20;75.60;;;;;;5059451;28;20024;-76
2021/05/02 10:14:33;;;;;;;2.40;0.00;;;11.10;76.40;;;;;;5077011;28;20033;-76
2021/05/02 10:16:59;;;;;;;0.98;0.00;;;11.00;72.60;;;;;;5075836;22;20068;-78
2021/05/02 10:19:25;;;;;;;1.30;0.00;;;10.90;75.80;;;;;;5072031;28;20017;-76
2021/05/02 10:21:50;;;;;;;0.90;0.17;;;10.90;72.90;;;;;;5059332;28;20069;-78
2021/05/02 10:24:16;;;;;;;0.93;0.00;;;10.90;71.00;;;;;;5078730;22;20130;-77
2021/05/02 10:26:42;;;;;;;0.82;0.30;;;10.90;73.20;;;;;;5109945;22;20036;-77
2021/05/02 10:29:08;;;;;;;1.80;0.03;;;10.90;71.20;;;;;;5097291;28;20023;-78
2021/05/02 10:31:41;;;;;;;0.95;0.00;;;10.90;72.80;;;;;;5078951;28;20016;-77
2021/05/02 10:34:30;;;;;;;0.10;0.05;;;11.00;74.00;;;;;;5098296;28;20016;-76
2021/05/02 10:37:23;;;;;;;1.55;0.00;;;11.60;79.70;;;;;;5097107;28;20389;-76
2021/05/02 10:39:56;;;;;;;2.58;0.03;;;12.10;76.10;;;;;;5078848;28;20549;-77
2021/05/02 10:42:55;;;;;;;2.08;0.00;;;12.00;70.90;;;;;;5109872;22;20044;-75
2021/05/02 10:45:45;;;;;;;0.60;0.00;;;11.60;76.00;;;;;;5057156;28;20045;-75
2021/05/02 10:48:13;;;;;;;1.30;0.00;;;11.30;78.70;;;;;;5097599;28;20039;-78
2021/05/02 10:50:45;;;;;;;1.08;0.15;;;11.00;77.50;;;;;;5097070;28;20024;-76
2021/05/02 10:55:58;;;;;;;2.17;0.00;;;10.80;79.20;;;;;;5094769;28;20040;-76
2021/05/02 10:58:31;;;;;;;2.85;0.05;;;10.60;81.30;;;;;;5097496;28;20047;-76
2021/05/02 11:01:01;;;;;;;0.52;0.20;;;10.70;82.60;;;;;;5096512;28;20035;-77
2021/05/02 11:03:36;;;;;;;0.20;0.20;;;11.00;86.00;;;;;;5078613;28;20020;-76
2021/05/02 11:06:13;;;;;;;0.25;0.00;;;11.50;79.00;;;;;;5093640;28;20028;-77
2021/05/02 11:08:51;;;;;;;1.65;0.00;;;12.10;81.20;;;;;;5094940;28;20103;-77
2021/05/02 11:11:36;;;;;;;1.48;0.30;;;12.80;74.90;;;;;;5096903;28;20017;-76
2021/05/02 11:14:15;;;;;;;0.45;0.00;;;12.80;72.00;;;;;;5095400;28;20028;-78
2021/05/02 11:16:48;;;;;;;0.30;0.00;;;12.50;72.80;;;;;;5097013;28;20104;-76
2021/05/02 11:19:20;;;;;;;1.13;0.00;;;12.20;73.60;;;;;;5095106;28;20020;-76
2021/05/02 11:21:52;;;;;;;0.60;0.00;;;12.00;75.90;;;;;;5094621;28;20027;-76
2021/05/02 11:24:20;;;;;;;0.88;0.00;;;11.90;76.60;;;;;;5109015;22;20044;-77
2021/05/02 11:29:23;;;;;;;1.20;0.03;;;12.00;75.50;;;;;;5096007;28;20485;-76
2021/05/02 11:31:50;;;;;;;0.65;0.00;;;12.00;75.50;;;;;;5095849;28;20050;-76
2021/05/02 11:34:16;;;;;;;0.63;0.03;;;12.10;71.40;;;;;;5096246;28;20107;-78
2021/05/02 11:36:43;;;;;;;1.55;0.00;;;12.10;70.90;;;;;;5095732;28;20512;-76
2021/05/02 11:39:31;;;;;;;1.20;0.00;;;12.10;70.00;;;;;;5095684;28;20021;-79
2021/05/02 11:42:04;;;;;;;0.80;0.00;;;12.00;68.00;;;;;;5096019;28;20421;-76
2021/05/02 11:44:32;;;;;;;0.57;0.15;;;12.00;68.40;;;;;;5089765;22;20040;-79
2021/05/02 11:47:07;;;;;;;1.38;0.00;;;12.00;67.60;;;;;;5075510;28;20099;-77
2021/05/02 11:49:36;;;;;;;1.58;0.00;;;12.30;70.20;;;;;;5116723;23;20060;-78
2021/05/02 11:52:02;;;;;;;0.17;0.00;;;12.40;65.10;;;;;;5077883;28;20016;-78
2021/05/02 11:54:28;;;;;;;0.22;0.00;;;12.50;64.90;;;;;;5095445;28;20534;-78
2021/05/02 11:56:53;;;;;;;1.33;0.00;;;12.50;62.90;;;;;;5095610;28;20024;-78
2021/05/02 11:59:19;;;;;;;0.55;0.00;;;12.80;63.70;;;;;;5077189;28;20020;-78
2021/05/02 12:01:47;;;;;;;0.30;0.00;;;13.20;63.40;;;;;;5077338;28;20020;-78
2021/05/02 12:04:16;;;;;;;0.40;0.00;;;13.70;61.70;;;;;;5078281;28;20024;-79
2021/05/02 12:06:42;;;;;;;0.55;0.00;;;14.30;62.40;;;;;;5079492;28;20020;-78
2021/05/02 12:09:13;;;;;;;0.10;0.00;;;14.70;59.30;;;;;;5079256;28;20024;-78
2021/05/02 12:11:41;;;;;;;0.10;0.00;;;14.90;56.20;;;;;;5095621;28;20027;-78
2021/05/02 12:14:07;;;;;;;0.80;0.00;;;15.00;59.10;;;;;;5097784;28;20020;-79
2021/05/02 12:16:32;;;;;;;0.70;0.00;;;15.20;57.10;;;;;;5078913;28;20539;-78
2021/05/02 12:19:00;;;;;;;1.65;0.00;;;15.40;58.70;;;;;;5079193;28;20180;-78
2021/05/02 12:21:43;;;;;;;0.00;0.00;;;15.80;61.60;;;;;;5079621;28;20028;-78
2021/05/02 12:24:20;;;;;;;1.75;0.00;;;15.80;56.50;;;;;;5097452;28;20018;-78
2021/05/02 12:26:50;;;;;;;0.15;0.00;;;15.80;55.50;;;;;;5097136;28;20022;-78
2021/05/02 12:29:27;;;;;;;3.20;0.00;;;15.50;51.10;;;;;;5078574;28;20031;-78
2021/05/02 12:31:59;;;;;;;0.65;0.00;;;14.80;51.60;;;;;;5078522;28;20028;-78
2021/05/02 12:34:36;;;;;;;0.10;0.10;;;14.20;53.40;;;;;;5077840;28;20031;-78
2021/05/02 12:37:09;;;;;;;1.40;0.38;;;13.80;56.80;;;;;;5096689;28;20035;-78
2021/05/02 12:39:36;;;;;;;0.43;0.00;;;13.80;56.30;;;;;;5078315;28;20016;-78
2021/05/02 12:42:03;;;;;;;0.50;0.15;;;14.00;55.00;;;;;;5097190;28;20028;-78
2021/05/02 12:44:30;;;;;;;0.47;0.00;;;13.80;56.10;;;;;;5078977;28;20542;-78
2021/05/02 12:46:58;;;;;;;1.02;0.00;;;13.70;56.90;;;;;;5095854;28;20028;-78
2021/05/02 12:49:29;;;;;;;1.08;0.03;;;13.40;57.10;;;;;;5076250;28;20032;-78
2021/05/02 12:52:08;;;;;;;0.80;0.00;;;13.00;58.10;;;;;;5094746;28;20403;-78
2021/05/02 12:54:35;;;;;;;0.95;0.00;;;12.60;60.00;;;;;;5094168;28;20050;-76
2021/05/02 12:57:11;;;;;;;1.90;0.00;;;12.40;62.20;;;;;;5094744;28;20045;-79
2021/05/02 13:02:14;;;;;;;0.55;0.20;;;12.10;63.40;;;;;;5094532;28;20039;-77
2021/05/02 13:04:41;;;;;;;0.22;0.00;;;12.00;62.10;;;;;;5075932;28;20035;-77
2021/05/02 13:07:06;;;;;;;0.63;0.00;;;11.90;63.70;;;;;;5093803;28;20024;-77
2021/05/02 13:09:42;;;;;;;0.10;0.00;;;11.80;64.70;;;;;;5093953;28;20508;-77
2021/05/02 13:12:09;;;;;;;1.35;0.00;;;11.70;62.10;;;;;;5075715;28;20024;-77
2021/05/02 13:14:35;;;;;;;2.10;0.00;;;11.70;64.30;;;;;;5093794;28;20021;-77